sensor_id;sensor_type;location;lat;lon;timestamp;P1;durP1;ratioP1;P2;durP2;ratioP2
21354;SDS011;10835;50.148;19.760;2022-07-03T00:01:33;4.93;;;3.25;;
21354;SDS011;10835;50.148;19.760;2022-07-03T00:04:02;5.40;;;3.83;;
21354;SDS011;10835;50.148;19.760;2022-07-03T00:06:31;3.72;;;3.42;;
21354;SDS011;10835;50.148;19.760;2022-07-03T00:09:00;4.32;;;3.92;;
21354;SDS011;10835;50.148;19.760;2022-07-03T00:11:31;5.55;;;3.75;;
21354;SDS011;10835;50.148;19.760;2022-07-03T00:14:01;5.30;;;3.80;;
21354;SDS011;10835;50.148;19.760;2022-07-03T00:16:32;5.55;;;4.50;;
21354;SDS011;10835;50.148;19.760;2022-07-03T00:19:03;4.75;;;3.90;;
21354;SDS011;10835;50.148;19.760;2022-07-03T00:21:34;4.72;;;3.72;;
21354;SDS011;10835;50.148;19.760;2022-07-03T00:24:08;5.40;;;3.90;;
21354;SDS011;10835;50.148;19.760;2022-07-03T00:26:42;4.95;;;4.28;;
21354;SDS011;10835;50.148;19.760;2022-07-03T00:29:12;4.53;;;4.13;;
21354;SDS011;10835;50.148;19.760;2022-07-03T00:31:42;4.72;;;4.32;;
21354;SDS011;10835;50.148;19.760;2022-07-03T00:34:11;6.95;;;4.40;;
21354;SDS011;10835;50.148;19.760;2022-07-03T00:36:41;5.85;;;4.60;;
21354;SDS011;10835;50.148;19.760;2022-07-03T00:39:11;5.97;;;3.65;;
21354;SDS011;10835;50.148;19.760;2022-07-03T00:41:40;5.50;;;4.50;;
21354;SDS011;10835;50.148;19.760;2022-07-03T00:44:12;4.18;;;3.70;;
21354;SDS011;10835;50.148;19.760;2022-07-03T00:46:41;5.93;;;4.75;;
21354;SDS011;10835;50.148;19.760;2022-07-03T00:49:13;5.30;;;4.10;;
21354;SDS011;10835;50.148;19.760;2022-07-03T00:51:46;6.28;;;4.72;;
21354;SDS011;10835;50.148;19.760;2022-07-03T00:54:19;7.30;;;5.38;;
21354;SDS011;10835;50.148;19.760;2022-07-03T00:56:50;5.95;;;4.43;;
21354;SDS011;10835;50.148;19.760;2022-07-03T00:59:21;5.40;;;4.78;;
21354;SDS011;10835;50.148;19.760;2022-07-03T01:01:49;6.40;;;4.55;;
21354;SDS011;10835;50.148;19.760;2022-07-03T01:04:25;6.65;;;4.95;;
21354;SDS011;10835;50.148;19.760;2022-07-03T01:07:18;5.45;;;4.60;;
21354;SDS011;10835;50.148;19.760;2022-07-03T01:10:00;6.20;;;4.47;;
21354;SDS011;10835;50.148;19.760;2022-07-03T01:15:27;5.70;;;4.65;;
21354;SDS011;10835;50.148;19.760;2022-07-03T01:18:08;5.00;;;4.40;;
21354;SDS011;10835;50.148;19.760;2022-07-03T01:20:51;4.85;;;4.30;;
21354;SDS011;10835;50.148;19.760;2022-07-03T01:23:24;5.70;;;4.57;;
21354;SDS011;10835;50.148;19.760;2022-07-03T01:26:04;5.07;;;4.57;;
21354;SDS011;10835;50.148;19.760;2022-07-03T01:28:36;5.50;;;4.25;;
21354;SDS011;10835;50.148;19.760;2022-07-03T01:31:06;6.43;;;4.82;;
21354;SDS011;10835;50.148;19.760;2022-07-03T01:33:39;5.97;;;4.55;;
21354;SDS011;10835;50.148;19.760;2022-07-03T01:36:09;5.05;;;4.30;;
21354;SDS011;10835;50.148;19.760;2022-07-03T01:38:42;5.93;;;4.90;;
21354;SDS011;10835;50.148;19.760;2022-07-03T01:41:12;4.68;;;4.13;;
21354;SDS011;10835;50.148;19.760;2022-07-03T01:43:42;7.80;;;4.78;;
21354;SDS011;10835;50.148;19.760;2022-07-03T01:46:15;4.50;;;3.90;;
21354;SDS011;10835;50.148;19.760;2022-07-03T01:48:45;8.32;;;4.45;;
21354;SDS011;10835;50.148;19.760;2022-07-03T01:51:15;5.43;;;4.40;;
21354;SDS011;10835;50.148;19.760;2022-07-03T01:53:44;5.63;;;4.47;;
21354;SDS011;10835;50.148;19.760;2022-07-03T01:56:16;6.68;;;4.28;;
21354;SDS011;10835;50.148;19.760;2022-07-03T01:58:46;5.22;;;4.50;;
21354;SDS011;10835;50.148;19.760;2022-07-03T02:01:20;5.65;;;4.72;;
21354;SDS011;10835;50.148;19.760;2022-07-03T02:03:56;5.93;;;4.70;;
21354;SDS011;10835;50.148;19.760;2022-07-03T02:06:34;5.63;;;4.38;;
21354;SDS011;10835;50.148;19.760;2022-07-03T02:09:07;8.15;;;4.55;;
21354;SDS011;10835;50.148;19.760;2022-07-03T02:11:53;6.53;;;4.95;;
21354;SDS011;10835;50.148;19.760;2022-07-03T02:14:23;5.50;;;4.63;;
21354;SDS011;10835;50.148;19.760;2022-07-03T02:16:54;7.55;;;4.30;;
21354;SDS011;10835;50.148;19.760;2022-07-03T02:19:30;8.77;;;4.47;;
21354;SDS011;10835;50.148;19.760;2022-07-03T02:22:08;5.68;;;4.25;;
21354;SDS011;10835;50.148;19.760;2022-07-03T02:24:41;5.25;;;4.75;;
21354;SDS011;10835;50.148;19.760;2022-07-03T02:27:14;4.88;;;4.38;;
21354;SDS011;10835;50.148;19.760;2022-07-03T02:29:46;6.05;;;5.03;;
21354;SDS011;10835;50.148;19.760;2022-07-03T02:32:18;5.47;;;4.55;;
21354;SDS011;10835;50.148;19.760;2022-07-03T02:34:52;4.95;;;4.50;;
21354;SDS011;10835;50.148;19.760;2022-07-03T02:37:28;6.00;;;4.30;;
21354;SDS011;10835;50.148;19.760;2022-07-03T02:40:00;5.32;;;4.35;;
21354;SDS011;10835;50.148;19.760;2022-07-03T02:42:38;5.43;;;4.65;;
21354;SDS011;10835;50.148;19.760;2022-07-03T02:45:11;5.85;;;4.43;;
21354;SDS011;10835;50.148;19.760;2022-07-03T02:47:45;5.82;;;4.90;;
21354;SDS011;10835;50.148;19.760;2022-07-03T02:50:21;5.78;;;5.00;;
21354;SDS011;10835;50.148;19.760;2022-07-03T02:52:52;5.35;;;4.35;;
21354;SDS011;10835;50.148;19.760;2022-07-03T02:55:36;6.10;;;4.47;;
21354;SDS011;10835;50.148;19.760;2022-07-03T02:58:24;5.75;;;4.85;;
21354;SDS011;10835;50.148;19.760;2022-07-03T03:01:03;5.35;;;4.85;;
21354;SDS011;10835;50.148;19.760;2022-07-03T03:03:37;5.38;;;4.82;;
21354;SDS011;10835;50.148;19.760;2022-07-03T03:06:10;7.03;;;5.05;;
21354;SDS011;10835;50.148;19.760;2022-07-03T03:08:43;5.50;;;4.57;;
21354;SDS011;10835;50.148;19.760;2022-07-03T03:11:19;5.50;;;4.97;;
21354;SDS011;10835;50.148;19.760;2022-07-03T03:13:54;5.38;;;4.43;;
21354;SDS011;10835;50.148;19.760;2022-07-03T03:16:23;6.05;;;4.82;;
21354;SDS011;10835;50.148;19.760;2022-07-03T03:18:53;5.50;;;5.00;;
21354;SDS011;10835;50.148;19.760;2022-07-03T03:21:23;6.07;;;4.40;;
21354;SDS011;10835;50.148;19.760;2022-07-03T03:23:55;5.57;;;4.50;;
21354;SDS011;10835;50.148;19.760;2022-07-03T03:26:26;7.25;;;4.55;;
21354;SDS011;10835;50.148;19.760;2022-07-03T03:28:58;6.00;;;4.97;;
21354;SDS011;10835;50.148;19.760;2022-07-03T03:31:27;5.55;;;4.97;;
21354;SDS011;10835;50.148;19.760;2022-07-03T03:33:55;6.05;;;4.80;;
21354;SDS011;10835;50.148;19.760;2022-07-03T03:36:25;5.47;;;4.60;;
21354;SDS011;10835;50.148;19.760;2022-07-03T03:38:54;5.15;;;4.65;;
21354;SDS011;10835;50.148;19.760;2022-07-03T03:41:22;5.82;;;4.88;;
21354;SDS011;10835;50.148;19.760;2022-07-03T03:43:51;10.18;;;5.15;;
21354;SDS011;10835;50.148;19.760;2022-07-03T03:46:21;5.93;;;5.10;;
21354;SDS011;10835;50.148;19.760;2022-07-03T03:48:49;5.25;;;4.72;;
21354;SDS011;10835;50.148;19.760;2022-07-03T03:51:17;6.55;;;5.50;;
21354;SDS011;10835;50.148;19.760;2022-07-03T03:53:46;6.35;;;5.35;;
21354;SDS011;10835;50.148;19.760;2022-07-03T03:56:21;5.18;;;4.78;;
21354;SDS011;10835;50.148;19.760;2022-07-03T03:58:55;5.20;;;4.68;;
21354;SDS011;10835;50.148;19.760;2022-07-03T04:01:24;7.70;;;4.82;;
21354;SDS011;10835;50.148;19.760;2022-07-03T04:03:53;8.93;;;5.22;;
21354;SDS011;10835;50.148;19.760;2022-07-03T04:06:21;7.68;;;5.05;;
21354;SDS011;10835;50.148;19.760;2022-07-03T04:08:50;6.22;;;5.63;;
21354;SDS011;10835;50.148;19.760;2022-07-03T04:11:18;6.18;;;5.57;;
21354;SDS011;10835;50.148;19.760;2022-07-03T04:13:46;6.60;;;5.20;;
21354;SDS011;10835;50.148;19.760;2022-07-03T04:16:14;7.13;;;5.50;;
21354;SDS011;10835;50.148;19.760;2022-07-03T04:18:44;8.73;;;6.50;;
21354;SDS011;10835;50.148;19.760;2022-07-03T04:21:12;7.75;;;6.28;;
21354;SDS011;10835;50.148;19.760;2022-07-03T04:23:41;6.18;;;4.80;;
21354;SDS011;10835;50.148;19.760;2022-07-03T04:26:09;6.40;;;5.15;;
21354;SDS011;10835;50.148;19.760;2022-07-03T04:28:41;5.97;;;5.30;;
21354;SDS011;10835;50.148;19.760;2022-07-03T04:31:11;5.82;;;5.07;;
21354;SDS011;10835;50.148;19.760;2022-07-03T04:33:39;7.30;;;5.90;;
21354;SDS011;10835;50.148;19.760;2022-07-03T04:36:14;9.13;;;5.90;;
21354;SDS011;10835;50.148;19.760;2022-07-03T04:38:43;9.10;;;6.18;;
21354;SDS011;10835;50.148;19.760;2022-07-03T04:41:11;6.45;;;5.35;;
21354;SDS011;10835;50.148;19.760;2022-07-03T04:43:39;11.73;;;5.55;;
21354;SDS011;10835;50.148;19.760;2022-07-03T04:46:08;7.68;;;5.65;;
21354;SDS011;10835;50.148;19.760;2022-07-03T04:48:36;6.40;;;5.22;;
21354;SDS011;10835;50.148;19.760;2022-07-03T04:51:04;5.40;;;4.90;;
21354;SDS011;10835;50.148;19.760;2022-07-03T04:53:34;9.52;;;5.28;;
21354;SDS011;10835;50.148;19.760;2022-07-03T04:56:02;5.75;;;4.72;;
21354;SDS011;10835;50.148;19.760;2022-07-03T04:58:30;7.28;;;4.68;;
21354;SDS011;10835;50.148;19.760;2022-07-03T05:00:59;6.03;;;4.63;;
21354;SDS011;10835;50.148;19.760;2022-07-03T05:03:27;5.35;;;4.05;;
21354;SDS011;10835;50.148;19.760;2022-07-03T05:05:55;5.50;;;4.40;;
21354;SDS011;10835;50.148;19.760;2022-07-03T05:08:25;5.35;;;4.57;;
21354;SDS011;10835;50.148;19.760;2022-07-03T05:10:54;5.97;;;4.97;;
21354;SDS011;10835;50.148;19.760;2022-07-03T05:13:22;6.10;;;4.63;;
21354;SDS011;10835;50.148;19.760;2022-07-03T05:15:51;5.57;;;4.28;;
21354;SDS011;10835;50.148;19.760;2022-07-03T05:18:19;6.55;;;4.60;;
21354;SDS011;10835;50.148;19.760;2022-07-03T05:20:49;5.60;;;4.80;;
21354;SDS011;10835;50.148;19.760;2022-07-03T05:23:18;5.13;;;4.63;;
21354;SDS011;10835;50.148;19.760;2022-07-03T05:25:46;6.45;;;4.65;;
21354;SDS011;10835;50.148;19.760;2022-07-03T05:28:17;7.40;;;5.10;;
21354;SDS011;10835;50.148;19.760;2022-07-03T05:30:45;9.55;;;4.88;;
21354;SDS011;10835;50.148;19.760;2022-07-03T05:33:13;5.85;;;5.15;;
21354;SDS011;10835;50.148;19.760;2022-07-03T05:35:41;5.03;;;4.10;;
21354;SDS011;10835;50.148;19.760;2022-07-03T05:38:10;5.60;;;4.35;;
21354;SDS011;10835;50.148;19.760;2022-07-03T05:40:38;7.43;;;4.57;;
21354;SDS011;10835;50.148;19.760;2022-07-03T05:43:06;7.28;;;4.18;;
21354;SDS011;10835;50.148;19.760;2022-07-03T05:45:36;4.93;;;4.18;;
21354;SDS011;10835;50.148;19.760;2022-07-03T05:48:05;6.28;;;3.65;;
21354;SDS011;10835;50.148;19.760;2022-07-03T05:50:33;7.22;;;4.45;;
21354;SDS011;10835;50.148;19.760;2022-07-03T05:53:01;13.32;;;4.30;;
21354;SDS011;10835;50.148;19.760;2022-07-03T05:55:29;4.30;;;3.90;;
21354;SDS011;10835;50.148;19.760;2022-07-03T05:57:57;4.22;;;3.63;;
21354;SDS011;10835;50.148;19.760;2022-07-03T06:00:26;4.68;;;4.15;;
21354;SDS011;10835;50.148;19.760;2022-07-03T06:02:56;5.65;;;4.38;;
21354;SDS011;10835;50.148;19.760;2022-07-03T06:05:24;4.78;;;4.30;;
21354;SDS011;10835;50.148;19.760;2022-07-03T06:07:53;12.57;;;4.80;;
21354;SDS011;10835;50.148;19.760;2022-07-03T06:10:21;5.68;;;4.45;;
21354;SDS011;10835;50.148;19.760;2022-07-03T06:12:49;6.97;;;5.65;;
21354;SDS011;10835;50.148;19.760;2022-07-03T06:15:18;5.75;;;5.25;;
21354;SDS011;10835;50.148;19.760;2022-07-03T06:17:46;6.50;;;5.00;;
21354;SDS011;10835;50.148;19.760;2022-07-03T06:20:16;5.20;;;4.70;;
21354;SDS011;10835;50.148;19.760;2022-07-03T06:22:45;5.82;;;4.75;;
21354;SDS011;10835;50.148;19.760;2022-07-03T06:25:13;5.28;;;4.78;;
21354;SDS011;10835;50.148;19.760;2022-07-03T06:27:41;7.20;;;5.20;;
21354;SDS011;10835;50.148;19.760;2022-07-03T06:30:10;5.15;;;4.65;;
21354;SDS011;10835;50.148;19.760;2022-07-03T06:32:38;8.85;;;4.65;;
21354;SDS011;10835;50.148;19.760;2022-07-03T06:35:07;5.28;;;4.78;;
21354;SDS011;10835;50.148;19.760;2022-07-03T06:37:37;5.20;;;4.60;;
21354;SDS011;10835;50.148;19.760;2022-07-03T06:40:05;5.88;;;5.25;;
21354;SDS011;10835;50.148;19.760;2022-07-03T06:42:34;6.22;;;5.20;;
21354;SDS011;10835;50.148;19.760;2022-07-03T06:45:03;7.47;;;5.82;;
21354;SDS011;10835;50.148;19.760;2022-07-03T06:47:36;5.90;;;5.32;;
21354;SDS011;10835;50.148;19.760;2022-07-03T06:50:05;7.25;;;5.63;;
21354;SDS011;10835;50.148;19.760;2022-07-03T06:52:34;10.07;;;5.72;;
21354;SDS011;10835;50.148;19.760;2022-07-03T06:55:04;7.85;;;6.53;;
21354;SDS011;10835;50.148;19.760;2022-07-03T06:57:33;8.38;;;5.78;;
21354;SDS011;10835;50.148;19.760;2022-07-03T07:00:01;6.40;;;5.28;;
21354;SDS011;10835;50.148;19.760;2022-07-03T07:02:30;7.07;;;5.70;;
21354;SDS011;10835;50.148;19.760;2022-07-03T07:04:58;7.65;;;5.93;;
21354;SDS011;10835;50.148;19.760;2022-07-03T07:07:27;7.53;;;5.15;;
21354;SDS011;10835;50.148;19.760;2022-07-03T07:09:55;8.13;;;5.25;;
21354;SDS011;10835;50.148;19.760;2022-07-03T07:12:25;7.07;;;5.85;;
21354;SDS011;10835;50.148;19.760;2022-07-03T07:14:55;6.05;;;5.30;;
21354;SDS011;10835;50.148;19.760;2022-07-03T07:17:23;7.18;;;5.38;;
21354;SDS011;10835;50.148;19.760;2022-07-03T07:19:52;7.72;;;5.75;;
21354;SDS011;10835;50.148;19.760;2022-07-03T07:22:22;6.85;;;5.32;;
21354;SDS011;10835;50.148;19.760;2022-07-03T07:24:51;11.30;;;5.28;;
21354;SDS011;10835;50.148;19.760;2022-07-03T07:27:20;4.97;;;4.50;;
21354;SDS011;10835;50.148;19.760;2022-07-03T07:29:49;7.97;;;4.60;;
21354;SDS011;10835;50.148;19.760;2022-07-03T07:32:18;4.40;;;4.00;;
21354;SDS011;10835;50.148;19.760;2022-07-03T07:34:46;4.90;;;4.00;;
21354;SDS011;10835;50.148;19.760;2022-07-03T07:37:14;6.90;;;4.13;;
21354;SDS011;10835;50.148;19.760;2022-07-03T07:39:45;5.20;;;4.38;;
21354;SDS011;10835;50.148;19.760;2022-07-03T07:42:13;5.03;;;4.53;;
21354;SDS011;10835;50.148;19.760;2022-07-03T07:44:42;4.53;;;4.13;;
21354;SDS011;10835;50.148;19.760;2022-07-03T07:47:11;5.00;;;4.47;;
21354;SDS011;10835;50.148;19.760;2022-07-03T07:49:40;4.82;;;4.28;;
21354;SDS011;10835;50.148;19.760;2022-07-03T07:52:08;5.10;;;4.20;;
21354;SDS011;10835;50.148;19.760;2022-07-03T07:54:36;4.13;;;3.72;;
21354;SDS011;10835;50.148;19.760;2022-07-03T07:57:05;5.63;;;3.50;;
21354;SDS011;10835;50.148;19.760;2022-07-03T07:59:33;4.78;;;4.07;;
21354;SDS011;10835;50.148;19.760;2022-07-03T08:02:11;4.78;;;3.53;;
21354;SDS011;10835;50.148;19.760;2022-07-03T08:04:57;5.80;;;3.63;;
21354;SDS011;10835;50.148;19.760;2022-07-03T08:07:42;11.85;;;3.50;;
21354;SDS011;10835;50.148;19.760;2022-07-03T08:10:11;5.68;;;3.88;;
21354;SDS011;10835;50.148;19.760;2022-07-03T08:12:39;3.92;;;3.40;;
21354;SDS011;10835;50.148;19.760;2022-07-03T08:15:07;4.30;;;3.50;;
21354;SDS011;10835;50.148;19.760;2022-07-03T08:17:37;4.20;;;3.22;;
21354;SDS011;10835;50.148;19.760;2022-07-03T08:20:06;3.25;;;2.95;;
21354;SDS011;10835;50.148;19.760;2022-07-03T08:22:35;5.78;;;3.33;;
21354;SDS011;10835;50.148;19.760;2022-07-03T08:25:03;3.30;;;3.00;;
21354;SDS011;10835;50.148;19.760;2022-07-03T08:27:32;5.43;;;3.20;;
21354;SDS011;10835;50.148;19.760;2022-07-03T08:30:00;5.38;;;3.25;;
21354;SDS011;10835;50.148;19.760;2022-07-03T08:32:28;3.67;;;3.03;;
21354;SDS011;10835;50.148;19.760;2022-07-03T08:34:58;3.28;;;2.78;;
21354;SDS011;10835;50.148;19.760;2022-07-03T08:37:26;5.05;;;3.30;;
21354;SDS011;10835;50.148;19.760;2022-07-03T08:39:55;3.28;;;2.97;;
21354;SDS011;10835;50.148;19.760;2022-07-03T08:42:24;4.63;;;2.75;;
21354;SDS011;10835;50.148;19.760;2022-07-03T08:44:54;2.90;;;2.53;;
21354;SDS011;10835;50.148;19.760;2022-07-03T08:47:22;2.45;;;2.25;;
21354;SDS011;10835;50.148;19.760;2022-07-03T08:49:54;3.10;;;2.85;;
21354;SDS011;10835;50.148;19.760;2022-07-03T08:52:25;3.00;;;2.72;;
21354;SDS011;10835;50.148;19.760;2022-07-03T08:54:57;3.50;;;3.17;;
21354;SDS011;10835;50.148;19.760;2022-07-03T08:57:25;3.40;;;2.15;;
21354;SDS011;10835;50.148;19.760;2022-07-03T08:59:55;4.70;;;2.63;;
21354;SDS011;10835;50.148;19.760;2022-07-03T09:02:24;3.30;;;2.85;;
21354;SDS011;10835;50.148;19.760;2022-07-03T09:04:53;3.83;;;3.05;;
21354;SDS011;10835;50.148;19.760;2022-07-03T09:07:24;3.58;;;3.28;;
21354;SDS011;10835;50.148;19.760;2022-07-03T09:09:54;4.40;;;3.50;;
21354;SDS011;10835;50.148;19.760;2022-07-03T09:12:23;3.80;;;2.85;;
21354;SDS011;10835;50.148;19.760;2022-07-03T09:14:51;3.83;;;2.85;;
21354;SDS011;10835;50.148;19.760;2022-07-03T09:17:19;4.20;;;3.40;;
21354;SDS011;10835;50.148;19.760;2022-07-03T09:19:48;5.10;;;3.70;;
21354;SDS011;10835;50.148;19.760;2022-07-03T09:22:20;6.00;;;3.70;;
21354;SDS011;10835;50.148;19.760;2022-07-03T09:24:53;4.20;;;3.35;;
21354;SDS011;10835;50.148;19.760;2022-07-03T09:27:30;5.15;;;3.22;;
21354;SDS011;10835;50.148;19.760;2022-07-03T09:29:59;3.97;;;3.58;;
21354;SDS011;10835;50.148;19.760;2022-07-03T09:32:40;3.92;;;3.47;;
21354;SDS011;10835;50.148;19.760;2022-07-03T09:35:14;4.05;;;3.05;;
21354;SDS011;10835;50.148;19.760;2022-07-03T09:37:47;4.00;;;3.60;;
21354;SDS011;10835;50.148;19.760;2022-07-03T09:40:19;5.50;;;3.78;;
21354;SDS011;10835;50.148;19.760;2022-07-03T09:42:57;5.03;;;3.50;;
21354;SDS011;10835;50.148;19.760;2022-07-03T09:45:26;3.75;;;3.28;;
21354;SDS011;10835;50.148;19.760;2022-07-03T09:47:55;4.60;;;3.58;;
21354;SDS011;10835;50.148;19.760;2022-07-03T09:50:43;4.68;;;3.90;;
21354;SDS011;10835;50.148;19.760;2022-07-03T09:53:11;6.25;;;3.95;;
21354;SDS011;10835;50.148;19.760;2022-07-03T09:55:41;4.32;;;3.42;;
21354;SDS011;10835;50.148;19.760;2022-07-03T09:58:23;4.20;;;3.30;;
21354;SDS011;10835;50.148;19.760;2022-07-03T10:00:51;5.10;;;3.60;;
21354;SDS011;10835;50.148;19.760;2022-07-03T10:03:20;4.20;;;3.80;;
21354;SDS011;10835;50.148;19.760;2022-07-03T10:05:48;6.55;;;3.80;;
21354;SDS011;10835;50.148;19.760;2022-07-03T10:08:20;4.32;;;3.40;;
21354;SDS011;10835;50.148;19.760;2022-07-03T10:10:50;5.13;;;3.60;;
21354;SDS011;10835;50.148;19.760;2022-07-03T10:13:18;4.95;;;3.22;;
21354;SDS011;10835;50.148;19.760;2022-07-03T10:15:48;5.60;;;3.72;;
21354;SDS011;10835;50.148;19.760;2022-07-03T10:18:17;4.32;;;3.38;;
21354;SDS011;10835;50.148;19.760;2022-07-03T10:20:50;4.35;;;3.70;;
21354;SDS011;10835;50.148;19.760;2022-07-03T10:23:24;4.63;;;3.38;;
21354;SDS011;10835;50.148;19.760;2022-07-03T10:25:55;3.95;;;3.45;;
21354;SDS011;10835;50.148;19.760;2022-07-03T10:28:23;4.97;;;3.78;;
21354;SDS011;10835;50.148;19.760;2022-07-03T10:30:52;3.58;;;3.15;;
21354;SDS011;10835;50.148;19.760;2022-07-03T10:33:21;5.20;;;3.70;;
21354;SDS011;10835;50.148;19.760;2022-07-03T10:35:50;5.00;;;3.25;;
21354;SDS011;10835;50.148;19.760;2022-07-03T10:38:24;4.53;;;3.40;;
21354;SDS011;10835;50.148;19.760;2022-07-03T10:41:06;4.35;;;3.50;;
21354;SDS011;10835;50.148;19.760;2022-07-03T10:44:00;4.85;;;3.83;;
21354;SDS011;10835;50.148;19.760;2022-07-03T10:46:50;4.88;;;3.70;;
21354;SDS011;10835;50.148;19.760;2022-07-03T10:49:25;3.92;;;3.45;;
21354;SDS011;10835;50.148;19.760;2022-07-03T10:51:55;3.97;;;3.55;;
21354;SDS011;10835;50.148;19.760;2022-07-03T10:54:24;3.85;;;3.45;;
21354;SDS011;10835;50.148;19.760;2022-07-03T10:57:08;5.85;;;3.33;;
21354;SDS011;10835;50.148;19.760;2022-07-03T10:59:56;4.30;;;3.40;;
21354;SDS011;10835;50.148;19.760;2022-07-03T11:02:31;4.43;;;3.00;;
21354;SDS011;10835;50.148;19.760;2022-07-03T11:08:07;4.22;;;3.53;;
21354;SDS011;10835;50.148;19.760;2022-07-03T11:10:38;4.07;;;3.67;;
21354;SDS011;10835;50.148;19.760;2022-07-03T11:13:19;3.75;;;3.45;;
21354;SDS011;10835;50.148;19.760;2022-07-03T11:15:51;4.15;;;3.30;;
21354;SDS011;10835;50.148;19.760;2022-07-03T11:18:30;4.13;;;3.70;;
21354;SDS011;10835;50.148;19.760;2022-07-03T11:24:10;4.00;;;3.63;;
21354;SDS011;10835;50.148;19.760;2022-07-03T11:27:14;4.85;;;3.80;;
21354;SDS011;10835;50.148;19.760;2022-07-03T11:29:52;4.85;;;3.60;;
21354;SDS011;10835;50.148;19.760;2022-07-03T11:38:19;3.40;;;3.10;;
21354;SDS011;10835;50.148;19.760;2022-07-03T11:40:54;4.20;;;3.80;;
21354;SDS011;10835;50.148;19.760;2022-07-03T11:43:23;4.78;;;3.80;;
21354;SDS011;10835;50.148;19.760;2022-07-03T11:45:53;5.45;;;3.97;;
21354;SDS011;10835;50.148;19.760;2022-07-03T11:48:24;4.35;;;3.95;;
21354;SDS011;10835;50.148;19.760;2022-07-03T11:50:58;3.50;;;3.20;;
21354;SDS011;10835;50.148;19.760;2022-07-03T11:53:28;4.82;;;3.38;;
21354;SDS011;10835;50.148;19.760;2022-07-03T11:55:58;4.35;;;3.80;;
21354;SDS011;10835;50.148;19.760;2022-07-03T11:58:39;3.63;;;3.33;;
21354;SDS011;10835;50.148;19.760;2022-07-03T12:01:11;4.55;;;4.00;;
21354;SDS011;10835;50.148;19.760;2022-07-03T12:04:02;5.07;;;3.58;;
21354;SDS011;10835;50.148;19.760;2022-07-03T12:06:35;3.90;;;3.50;;
21354;SDS011;10835;50.148;19.760;2022-07-03T12:09:12;9.93;;;3.88;;
21354;SDS011;10835;50.148;19.760;2022-07-03T12:11:42;4.22;;;3.63;;
21354;SDS011;10835;50.148;19.760;2022-07-03T12:14:32;4.00;;;3.47;;
21354;SDS011;10835;50.148;19.760;2022-07-03T12:17:07;3.97;;;3.58;;
21354;SDS011;10835;50.148;19.760;2022-07-03T12:19:37;6.28;;;3.65;;
21354;SDS011;10835;50.148;19.760;2022-07-03T12:22:05;6.63;;;4.13;;
21354;SDS011;10835;50.148;19.760;2022-07-03T12:24:34;4.57;;;3.97;;
21354;SDS011;10835;50.148;19.760;2022-07-03T12:27:05;3.80;;;3.40;;
21354;SDS011;10835;50.148;19.760;2022-07-03T12:29:33;4.95;;;4.10;;
21354;SDS011;10835;50.148;19.760;2022-07-03T12:32:08;5.75;;;3.70;;
21354;SDS011;10835;50.148;19.760;2022-07-03T12:34:38;4.53;;;3.65;;
21354;SDS011;10835;50.148;19.760;2022-07-03T12:37:07;7.80;;;4.20;;
21354;SDS011;10835;50.148;19.760;2022-07-03T12:39:42;5.90;;;3.80;;
21354;SDS011;10835;50.148;19.760;2022-07-03T12:42:13;5.07;;;3.42;;
21354;SDS011;10835;50.148;19.760;2022-07-03T12:44:54;5.43;;;4.28;;
21354;SDS011;10835;50.148;19.760;2022-07-03T12:47:27;4.80;;;4.18;;
21354;SDS011;10835;50.148;19.760;2022-07-03T12:49:57;7.45;;;3.85;;
21354;SDS011;10835;50.148;19.760;2022-07-03T12:52:28;7.45;;;4.05;;
21354;SDS011;10835;50.148;19.760;2022-07-03T12:54:57;4.68;;;3.70;;
21354;SDS011;10835;50.148;19.760;2022-07-03T12:57:26;4.85;;;3.65;;
21354;SDS011;10835;50.148;19.760;2022-07-03T13:00:13;5.03;;;4.13;;
21354;SDS011;10835;50.148;19.760;2022-07-03T13:02:46;5.43;;;4.07;;
21354;SDS011;10835;50.148;19.760;2022-07-03T13:05:19;4.97;;;4.00;;
21354;SDS011;10835;50.148;19.760;2022-07-03T13:07:49;5.50;;;3.85;;
21354;SDS011;10835;50.148;19.760;2022-07-03T13:10:19;5.40;;;3.95;;
21354;SDS011;10835;50.148;19.760;2022-07-03T13:12:49;4.80;;;4.00;;
21354;SDS011;10835;50.148;19.760;2022-07-03T13:15:19;5.35;;;4.18;;
21354;SDS011;10835;50.148;19.760;2022-07-03T13:17:56;11.77;;;4.38;;
21354;SDS011;10835;50.148;19.760;2022-07-03T13:20:26;72.00;;;8.48;;
21354;SDS011;10835;50.148;19.760;2022-07-03T13:22:56;15.00;;;4.75;;
21354;SDS011;10835;50.148;19.760;2022-07-03T13:25:26;4.30;;;3.92;;
21354;SDS011;10835;50.148;19.760;2022-07-03T13:28:02;4.13;;;3.72;;
21354;SDS011;10835;50.148;19.760;2022-07-03T13:30:31;6.18;;;4.18;;
21354;SDS011;10835;50.148;19.760;2022-07-03T13:33:01;7.40;;;4.30;;
21354;SDS011;10835;50.148;19.760;2022-07-03T13:35:29;4.50;;;4.05;;
21354;SDS011;10835;50.148;19.760;2022-07-03T13:37:58;4.15;;;3.75;;
21354;SDS011;10835;50.148;19.760;2022-07-03T13:40:26;4.18;;;3.78;;
21354;SDS011;10835;50.148;19.760;2022-07-03T13:42:55;4.80;;;3.60;;
21354;SDS011;10835;50.148;19.760;2022-07-03T13:45:26;3.72;;;3.42;;
21354;SDS011;10835;50.148;19.760;2022-07-03T13:47:54;3.70;;;3.30;;
21354;SDS011;10835;50.148;19.760;2022-07-03T13:50:24;4.07;;;3.67;;
21354;SDS011;10835;50.148;19.760;2022-07-03T13:52:52;4.18;;;3.78;;
21354;SDS011;10835;50.148;19.760;2022-07-03T13:55:20;4.18;;;3.78;;
21354;SDS011;10835;50.148;19.760;2022-07-03T13:57:48;4.15;;;3.65;;
21354;SDS011;10835;50.148;19.760;2022-07-03T14:00:17;3.92;;;3.47;;
21354;SDS011;10835;50.148;19.760;2022-07-03T14:02:45;5.80;;;4.10;;
21354;SDS011;10835;50.148;19.760;2022-07-03T14:05:14;3.95;;;3.55;;
21354;SDS011;10835;50.148;19.760;2022-07-03T14:07:43;4.78;;;3.70;;
21354;SDS011;10835;50.148;19.760;2022-07-03T14:10:13;4.45;;;3.40;;
21354;SDS011;10835;50.148;19.760;2022-07-03T14:12:41;3.63;;;3.20;;
21354;SDS011;10835;50.148;19.760;2022-07-03T14:15:10;5.18;;;4.38;;
21354;SDS011;10835;50.148;19.760;2022-07-03T14:17:38;5.72;;;3.30;;
21354;SDS011;10835;50.148;19.760;2022-07-03T14:20:10;6.13;;;3.90;;
21354;SDS011;10835;50.148;19.760;2022-07-03T14:22:39;3.58;;;3.28;;
21354;SDS011;10835;50.148;19.760;2022-07-03T14:25:17;3.53;;;3.03;;
21354;SDS011;10835;50.148;19.760;2022-07-03T14:27:46;4.78;;;3.78;;
21354;SDS011;10835;50.148;19.760;2022-07-03T14:30:32;3.95;;;3.55;;
21354;SDS011;10835;50.148;19.760;2022-07-03T14:33:18;4.15;;;3.75;;
21354;SDS011;10835;50.148;19.760;2022-07-03T14:35:46;5.65;;;3.72;;
21354;SDS011;10835;50.148;19.760;2022-07-03T14:38:15;3.83;;;3.47;;
21354;SDS011;10835;50.148;19.760;2022-07-03T14:40:44;5.82;;;3.70;;
21354;SDS011;10835;50.148;19.760;2022-07-03T14:43:12;4.32;;;3.92;;
21354;SDS011;10835;50.148;19.760;2022-07-03T14:45:41;3.90;;;3.60;;
21354;SDS011;10835;50.148;19.760;2022-07-03T14:48:09;5.38;;;3.70;;
21354;SDS011;10835;50.148;19.760;2022-07-03T14:50:37;3.65;;;3.33;;
21354;SDS011;10835;50.148;19.760;2022-07-03T14:53:16;4.30;;;3.78;;
21354;SDS011;10835;50.148;19.760;2022-07-03T14:55:48;4.10;;;3.70;;
21354;SDS011;10835;50.148;19.760;2022-07-03T14:58:19;4.25;;;3.85;;
21354;SDS011;10835;50.148;19.760;2022-07-03T15:00:49;3.95;;;3.55;;
21354;SDS011;10835;50.148;19.760;2022-07-03T15:03:26;4.07;;;3.67;;
21354;SDS011;10835;50.148;19.760;2022-07-03T15:05:56;4.13;;;3.72;;
21354;SDS011;10835;50.148;19.760;2022-07-03T15:08:36;3.80;;;3.50;;
21354;SDS011;10835;50.148;19.760;2022-07-03T15:11:27;4.30;;;3.90;;
21354;SDS011;10835;50.148;19.760;2022-07-03T15:14:19;3.50;;;3.20;;